Time;durP1;ratioP1;P1;durP2;ratioP2;P2;SDS_P1;SDS_P2;PMS_P1;PMS_P2;Temp;Humidity;BMP_temperature;BMP_pressure;BME280_temperature;BME280_humidity;BME280_pressure;Samples;Min_cycle;Max_cycle;Signal;HPM_P1;HPM_P2
2022/12/11 00:01:49;;;;;;;0.10;0.10;;;;;;;2.93;73.91;100385.00;7362159;19;20018;-56
2022/12/11 00:04:15;;;;;;;0.10;0.10;;;;;;;2.94;73.64;100386.75;7363358;19;20073;-56
2022/12/11 00:06:41;;;;;;;0.10;0.10;;;;;;;2.81;73.64;100369.50;7356503;19;20017;-57
2022/12/11 00:09:06;;;;;;;0.00;0.00;;;;;;;2.95;74.00;100382.44;7361553;19;20014;-57
2022/12/11 00:11:32;;;;;;;0.10;0.10;;;;;;;2.79;73.60;100366.06;7359565;19;20019;-56
2022/12/11 00:13:58;;;;;;;0.10;0.10;;;;;;;2.89;73.93;100377.25;7362216;19;20002;-56
2022/12/11 00:16:23;;;;;;;0.10;0.10;;;;;;;2.81;73.72;100364.34;7359744;19;20015;-57
2022/12/11 00:18:48;;;;;;;0.00;0.00;;;;;;;2.82;73.50;100361.75;7362254;19;20018;-57
2022/12/11 00:21:14;;;;;;;0.10;0.10;;;;;;;2.84;73.85;100369.53;7358477;19;20035;-57
2022/12/11 00:23:40;;;;;;;0.10;0.10;;;;;;;2.94;73.82;100385.84;7361904;19;20053;-57
2022/12/11 00:26:10;;;;;;;0.00;0.00;;;;;;;3.03;74.06;100394.50;7351236;19;20774;-57
2022/12/11 00:28:36;;;;;;;0.13;0.13;;;;;;;3.01;74.22;100392.78;7349792;19;20026;-58
2022/12/11 00:31:06;;;;;;;0.00;0.00;;;;;;;2.96;74.10;100374.72;7348288;19;20002;-56
2022/12/11 00:33:31;;;;;;;0.00;0.00;;;;;;;3.09;73.64;100396.22;7355100;19;20025;-57
2022/12/11 00:35:57;;;;;;;0.10;0.10;;;;;;;3.01;73.91;100377.31;7360489;19;20010;-57
2022/12/11 00:38:23;;;;;;;0.00;0.00;;;;;;;3.10;74.15;100395.38;7359522;19;20032;-56
2022/12/11 00:40:48;;;;;;;0.00;0.00;;;;;;;3.15;73.93;100405.72;7356605;19;20038;-57
2022/12/11 00:43:14;;;;;;;0.10;0.10;;;;;;;3.12;73.93;100398.81;7349650;19;20014;-56
2022/12/11 00:45:42;;;;;;;0.00;0.00;;;;;;;3.13;74.19;100397.97;7350939;19;22326;-56
2022/12/11 00:48:09;;;;;;;0.10;0.10;;;;;;;3.11;74.22;100384.22;7360262;19;20015;-59
2022/12/11 00:50:35;;;;;;;0.10;0.10;;;;;;;3.22;73.75;100402.28;7358381;19;20044;-57
2022/12/11 00:53:01;;;;;;;0.10;0.10;;;;;;;3.19;74.21;100395.38;7361256;19;20046;-57
2022/12/11 00:55:29;;;;;;;0.03;0.03;;;;;;;3.13;74.06;100392.81;7354528;19;20678;-55
2022/12/11 00:57:55;;;;;;;0.00;0.00;;;;;;;3.23;73.87;100397.13;7353753;19;20018;-57
2022/12/11 01:00:21;;;;;;;0.05;0.05;;;;;;;3.27;73.81;100401.44;7350257;19;20105;-54
2022/12/11 01:02:48;;;;;;;0.10;0.10;;;;;;;3.25;74.11;100387.69;7353400;19;20055;-57
2022/12/11 01:05:14;;;;;;;0.10;0.10;;;;;;;3.34;73.97;100400.59;7351040;19;20014;-56
2022/12/11 01:07:39;;;;;;;0.10;0.10;;;;;;;3.29;73.82;100379.06;7350794;19;20017;-57
2022/12/11 01:10:23;;;;;;;0.08;0.08;;;;;;;3.27;73.90;100378.22;7353752;19;20010;-57
2022/12/11 01:13:13;;;;;;;0.10;0.10;;;;;;;3.42;73.73;100390.28;7360789;19;20009;-56
2022/12/11 01:15:43;;;;;;;0.10;0.10;;;;;;;3.30;74.16;100369.63;7361636;19;20018;-57
2022/12/11 01:18:11;;;;;;;0.10;0.10;;;;;;;3.43;74.08;100391.16;7358715;19;20115;-56
2022/12/11 01:20:38;;;;;;;0.10;0.10;;;;;;;3.31;73.53;100364.47;7358235;19;20014;-57
2022/12/11 01:23:05;;;;;;;0.08;0.08;;;;;;;3.45;73.82;100389.41;7358170;19;20010;-57
2022/12/11 01:25:32;;;;;;;0.10;0.10;;;;;;;3.37;73.94;100372.22;7357093;19;20007;-57
2022/12/11 01:27:58;;;;;;;0.10;0.10;;;;;;;3.48;73.58;100389.44;7359305;19;20015;-57
2022/12/11 01:30:24;;;;;;;0.00;0.00;;;;;;;3.50;73.58;100392.91;7356892;19;20018;-57
2022/12/11 01:32:50;;;;;;;0.10;0.10;;;;;;;3.52;73.68;100393.75;7355700;19;20049;-56
2022/12/11 01:35:16;;;;;;;0.10;0.10;;;;;;;3.53;73.73;100398.03;7353193;19;20063;-56
2022/12/11 01:37:41;;;;;;;0.10;0.10;;;;;;;3.54;73.98;100394.59;7360749;19;20006;-56
2022/12/11 01:40:08;;;;;;;0.10;0.10;;;;;;;3.44;73.62;100373.06;7359150;19;20125;-57
2022/12/11 01:42:34;;;;;;;0.10;0.10;;;;;;;3.56;73.41;100393.75;7366981;19;20014;-56
2022/12/11 01:45:21;;;;;;;0.10;0.10;;;;;;;3.61;73.51;100386.00;7366252;19;20011;-57
2022/12/11 01:47:48;;;;;;;0.10;0.10;;;;;;;3.58;73.52;100383.41;7365802;19;20040;-57
2022/12/11 01:50:14;;;;;;;0.05;0.05;;;;;;;3.43;73.52;100361.03;7366027;19;20034;-56
2022/12/11 01:52:41;;;;;;;0.10;0.10;;;;;;;3.44;73.42;100362.75;7368417;19;20021;-56
2022/12/11 01:55:08;;;;;;;0.00;0.00;;;;;;;3.50;73.20;100377.41;7364877;19;20096;-57
2022/12/11 01:57:40;;;;;;;0.08;0.08;;;;;;;3.40;73.41;100361.03;7368122;19;20024;-56
2022/12/11 02:00:06;;;;;;;0.10;0.10;;;;;;;3.50;73.41;100382.56;7362040;19;20025;-57
2022/12/11 02:02:32;;;;;;;0.10;0.10;;;;;;;3.44;73.43;100378.22;7366397;19;20010;-57
2022/12/11 02:05:00;;;;;;;0.10;0.10;;;;;;;3.43;73.50;100380.81;7365451;19;20020;-57
2022/12/11 02:07:26;;;;;;;0.10;0.10;;;;;;;3.19;73.17;100351.53;7360534;19;20034;-57
2022/12/11 02:09:52;;;;;;;0.10;0.10;;;;;;;3.22;73.39;100367.03;7367508;19;21130;-55
2022/12/11 02:12:30;;;;;;;0.10;0.10;;;;;;;3.33;72.98;100383.38;7361725;19;20014;-56
2022/12/11 02:15:29;;;;;;;0.10;0.10;;;;;;;3.30;73.33;100378.22;7366117;19;20022;-57
2022/12/11 02:18:15;;;;;;;0.00;0.00;;;;;;;3.25;73.43;100377.38;7264132;19;2004035;-57
2022/12/11 02:20:52;;;;;;;0.08;0.08;;;;;;;3.21;73.66;100385.94;7365984;19;20355;-57
2022/12/11 02:23:20;;;;;;;0.10;0.10;;;;;;;3.18;73.83;100390.22;7364698;19;20002;-57
2022/12/11 02:26:00;;;;;;;0.10;0.10;;;;;;;3.19;73.64;100392.81;7365214;19;20014;-57
2022/12/11 02:28:31;;;;;;;0.00;0.00;;;;;;;3.17;73.62;100394.53;7358314;19;20827;-56
2022/12/11 02:31:07;;;;;;;0.10;0.10;;;;;;;3.19;73.78;100391.94;7365851;19;20016;-57
2022/12/11 02:33:38;;;;;;;0.10;0.10;;;;;;;3.06;73.94;100373.00;7362993;19;20015;-56
2022/12/11 02:36:06;;;;;;;0.00;0.00;;;;;;;3.17;73.75;100402.28;7361883;19;20007;-57
2022/12/11 02:38:38;;;;;;;0.00;0.00;;;;;;;3.13;73.70;100387.63;7365922;19;20031;-56
2022/12/11 02:41:05;;;;;;;0.10;0.10;;;;;;;3.05;73.76;100376.47;7364345;19;20030;-58
2022/12/11 02:43:33;;;;;;;0.05;0.05;;;;;;;3.17;73.90;100394.53;7364764;19;20012;-57
2022/12/11 02:46:00;;;;;;;0.10;0.10;;;;;;;3.17;73.97;100399.69;7365470;19;20006;-57
2022/12/11 02:48:26;;;;;;;0.00;0.00;;;;;;;2.99;74.01;100363.53;7366542;19;20085;-57
2022/12/11 02:50:56;;;;;;;0.10;0.10;;;;;;;3.12;73.87;100396.25;7361211;19;20074;-57
2022/12/11 02:53:26;;;;;;;0.10;0.10;;;;;;;3.09;73.77;100381.63;7363159;19;20010;-53
2022/12/11 02:56:07;;;;;;;0.05;0.05;;;;;;;3.13;73.75;100388.50;7364841;19;20047;-57
2022/12/11 02:58:35;;;;;;;0.10;0.10;;;;;;;2.68;73.71;100306.69;7355190;19;20010;-56
2022/12/11 03:01:00;;;;;;;0.10;0.10;;;;;;;3.06;74.12;100365.28;7362407;19;20014;-57
2022/12/11 03:03:28;;;;;;;0.10;0.10;;;;;;;3.08;73.91;100373.88;7358874;19;20018;-57
2022/12/11 03:05:54;;;;;;;;;;;;;;;3.10;73.65;100373.03;7364757;19;20019;-56
2022/12/11 03:08:19;;;;;;;0.10;0.10;;;;;;;3.04;73.98;100367.88;7363571;19;19928;-56
2022/12/11 03:10:45;;;;;;;0.05;0.05;;;;;;;3.02;74.00;100368.69;7360868;19;20040;-58
2022/12/11 03:13:14;;;;;;;0.10;0.10;;;;;;;2.80;73.82;100342.84;7361848;19;20437;-57
2022/12/11 03:15:57;;;;;;;0.10;0.10;;;;;;;2.95;73.87;100370.41;7364027;19;20022;-58
2022/12/11 03:18:57;;;;;;;0.10;0.10;;;;;;;2.91;73.51;100371.25;7362013;19;20849;-58
2022/12/11 03:21:30;;;;;;;0.03;0.03;;;;;;;2.73;73.57;100348.81;7258911;19;2004035;-56
2022/12/11 03:23:55;;;;;;;0.10;0.10;;;;;;;2.81;73.66;100375.50;7357833;19;20569;-57
2022/12/11 03:26:23;;;;;;;0.10;0.10;;;;;;;2.79;73.94;100371.22;7364390;19;20028;-57
2022/12/11 03:29:18;;;;;;;0.05;0.05;;;;;;;2.73;73.42;100366.88;7360295;19;20378;-57
2022/12/11 03:31:53;;;;;;;0.10;0.10;;;;;;;2.70;73.73;100373.75;7259123;19;2004448;-57
2022/12/11 03:34:25;;;;;;;0.10;0.10;;;;;;;2.64;73.76;100372.03;7362672;19;20040;-57
2022/12/11 03:36:54;;;;;;;0.10;0.10;;;;;;;2.45;73.78;100344.44;7354636;19;20902;-57
2022/12/11 03:39:37;;;;;;;0.10;0.10;;;;;;;2.57;74.13;100375.41;7362596;19;20010;-57
2022/12/11 03:42:07;;;;;;;0.00;0.00;;;;;;;2.18;73.87;100315.13;7358243;19;20010;-57
2022/12/11 03:44:34;;;;;;;0.00;0.00;;;;;;;2.36;73.95;100349.53;7361919;19;20011;-56
2022/12/11 03:47:02;;;;;;;0.00;0.00;;;;;;;2.43;73.96;100366.75;7361044;19;20019;-56
2022/12/11 03:49:33;;;;;;;0.10;0.10;;;;;;;2.42;73.91;100370.19;7363957;19;20014;-57
2022/12/11 03:52:00;;;;;;;0.10;0.10;;;;;;;2.37;74.31;100377.88;7361371;19;20010;-56
2022/12/11 03:54:27;;;;;;;0.10;0.10;;;;;;;2.32;73.89;100382.16;7359382;19;20010;-57
2022/12/11 03:56:56;;;;;;;0.08;0.08;;;;;;;2.26;74.10;100366.66;7360655;19;20130;-56
2022/12/11 03:59:22;;;;;;;0.10;0.10;;;;;;;2.19;74.01;100370.06;7359718;19;20073;-57
2022/12/11 04:01:47;;;;;;;0.10;0.10;;;;;;;2.23;73.70;100385.56;7362676;19;20109;-58
2022/12/11 04:04:13;;;;;;;0.10;0.10;;;;;;;2.15;73.49;100366.59;7359455;19;20013;-57
2022/12/11 04:06:38;;;;;;;0.10;0.10;;;;;;;2.04;73.73;100357.97;7343163;19;20018;-58
2022/12/11 04:09:04;;;;;;;0.10;0.10;;;;;;;2.16;74.12;100383.78;7362115;19;20012;-56
2022/12/11 04:11:35;;;;;;;0.00;0.00;;;;;;;1.98;73.90;100368.22;7361647;19;20018;-58
2022/12/11 04:16:51;;;;;;;0.10;0.10;;;;;;;1.67;74.10;100301.03;7357045;19;20021;-57
2022/12/11 04:24:48;;;;;;;0.00;0.00;;;;;;;1.95;74.41;100355.31;7359481;19;20074;-57
2022/12/11 04:27:13;;;;;;;0.00;0.00;;;;;;;1.96;74.61;100346.72;7361431;19;20022;-56
2022/12/11 04:29:38;;;;;;;0.08;0.08;;;;;;;2.10;74.42;100370.88;7362220;19;20058;-56
2022/12/11 04:32:04;;;;;;;0.10;0.10;;;;;;;1.22;74.32;100230.44;7362093;19;21015;-57
2022/12/11 04:34:29;;;;;;;0.00;0.00;;;;;;;2.12;74.27;100369.16;7361613;19;20015;-57
2022/12/11 04:36:55;;;;;;;0.10;0.10;;;;;;;2.14;74.14;100367.47;7363240;19;20683;-56
2022/12/11 04:39:20;;;;;;;0.10;0.10;;;;;;;2.00;74.29;100351.06;7360539;19;20019;-56
2022/12/11 04:41:46;;;;;;;0.00;0.00;;;;;;;1.68;74.07;100294.22;7360537;19;20388;-56
2022/12/11 04:44:11;;;;;;;0.10;0.10;;;;;;;2.07;74.29;100365.69;7359724;19;20018;-56
2022/12/11 04:46:36;;;;;;;0.10;0.10;;;;;;;2.06;74.18;100361.38;7361001;19;20046;-57
2022/12/11 04:49:02;;;;;;;0.10;0.10;;;;;;;2.04;74.15;100357.97;7358787;19;20433;-57
2022/12/11 04:51:28;;;;;;;0.00;0.00;;;;;;;2.08;73.96;100367.44;7363307;19;20481;-56
2022/12/11 04:53:53;;;;;;;0.00;0.00;;;;;;;2.06;74.00;100371.69;7361432;19;20478;-57
2022/12/11 04:56:19;;;;;;;0.10;0.10;;;;;;;2.01;74.04;100358.78;7360490;19;20092;-57
2022/12/11 04:58:47;;;;;;;0.10;0.10;;;;;;;2.03;74.14;100358.81;7359921;19;20022;-56
2022/12/11 05:01:15;;;;;;;0.00;0.00;;;;;;;2.02;74.38;100359.63;7362346;19;20199;-58
2022/12/11 05:03:41;;;;;;;0.10;0.10;;;;;;;1.98;74.11;100352.78;7362311;19;20006;-58
2022/12/11 05:06:09;;;;;;;0.00;0.00;;;;;;;1.99;74.51;100364.78;7360449;19;20027;-57
2022/12/11 05:08:36;;;;;;;0.10;0.10;;;;;;;1.97;74.19;100366.47;7361847;19;20435;-59
2022/12/11 05:11:04;;;;;;;0.10;0.10;;;;;;;1.91;74.26;100361.28;7358793;19;20018;-57
2022/12/11 05:13:30;;;;;;;0.10;0.10;;;;;;;1.93;74.62;100368.19;7363269;19;20010;-57
2022/12/11 05:15:56;;;;;;;0.10;0.10;;;;;;;1.83;74.41;100357.81;7363792;19;20027;-57
2022/12/11 05:18:22;;;;;;;0.08;0.08;;;;;;;1.87;74.41;100362.13;7367359;19;20014;-56
2022/12/11 05:20:55;;;;;;;0.10;0.10;;;;;;;1.90;74.40;100369.88;7364631;19;20006;-57
2022/12/11 05:23:20;;;;;;;0.10;0.10;;;;;;;1.87;74.68;100365.53;7368775;19;20411;-56
2022/12/11 05:25:57;;;;;;;0.10;0.10;;;;;;;1.88;74.10;100372.44;7366501;19;20082;-58
2022/12/11 05:28:24;;;;;;;0.10;0.10;;;;;;;1.84;73.99;100374.97;7367239;19;20055;-57
2022/12/11 05:31:04;;;;;;;0.10;0.10;;;;;;;1.82;73.90;100369.81;7365796;19;20539;-57
2022/12/11 05:33:30;;;;;;;0.10;0.10;;;;;;;1.84;74.20;100383.56;7367525;19;20081;-58
2022/12/11 05:35:55;;;;;;;0.10;0.10;;;;;;;1.77;74.20;100369.78;7365688;19;21482;-57
2022/12/11 05:38:21;;;;;;;0.10;0.10;;;;;;;1.85;74.26;100381.84;7365650;19;20003;-57
2022/12/11 05:41:05;;;;;;;0.10;0.10;;;;;;;1.74;73.97;100354.31;7366522;19;20010;-57
2022/12/11 05:43:32;;;;;;;0.10;0.10;;;;;;;1.74;74.31;100369.75;7367285;19;20010;-57
2022/12/11 05:46:10;;;;;;;0.10;0.10;;;;;;;1.79;73.93;100377.53;7366627;19;20029;-55
2022/12/11 05:48:36;;;;;;;;;;;;;;;1.87;73.63;100380.13;7367274;19;20006;-57
2022/12/11 05:51:02;;;;;;;0.10;0.10;;;;;;;1.69;74.15;100358.56;7368370;19;21386;-57
2022/12/11 05:53:28;;;;;;;0.00;0.00;;;;;;;1.80;74.37;100380.09;7367921;19;20010;-57
2022/12/11 05:55:59;;;;;;;0.10;0.10;;;;;;;1.77;74.47;100379.19;7366123;19;21103;-57
2022/12/11 05:58:24;;;;;;;0.05;0.05;;;;;;;1.78;74.02;100380.94;7366256;19;20006;-57
2022/12/11 06:00:50;;;;;;;0.10;0.10;;;;;;;1.71;74.15;100380.00;7365999;19;20025;-57
2022/12/11 06:03:15;;;;;;;0.10;0.10;;;;;;;1.75;74.13;100378.34;7367225;19;20011;-58
2022/12/11 06:05:42;;;;;;;0.10;0.10;;;;;;;1.72;74.27;100371.44;7364373;19;20477;-58
2022/12/11 06:08:07;;;;;;;0.10;0.10;;;;;;;1.75;74.15;100386.91;7362768;19;20011;-57
2022/12/11 06:10:33;;;;;;;0.10;0.10;;;;;;;1.66;74.38;100366.25;7366744;19;20014;-56
2022/12/11 06:12:58;;;;;;;0.10;0.10;;;;;;;1.72;73.94;100376.59;7367181;19;20010;-56
2022/12/11 06:15:24;;;;;;;0.10;0.10;;;;;;;1.78;74.29;100376.66;7365633;19;20119;-57
2022/12/11 06:17:49;;;;;;;0.10;0.10;;;;;;;1.70;74.14;100368.00;7365336;19;20010;-57
2022/12/11 06:20:15;;;;;;;0.00;0.00;;;;;;;1.77;74.20;100369.78;7365780;19;20021;-57
2022/12/11 06:22:40;;;;;;;0.00;0.00;;;;;;;1.40;74.26;100308.56;7363622;19;20010;-58
2022/12/11 06:25:06;;;;;;;0.00;0.00;;;;;;;1.39;74.47;100306.84;7365472;19;20014;-58
2022/12/11 06:27:31;;;;;;;0.10;0.10;;;;;;;1.68;74.28;100364.56;7363876;19;20051;-55
2022/12/11 06:29:57;;;;;;;0.10;0.10;;;;;;;1.72;74.35;100366.28;7363554;19;20010;-56
2022/12/11 06:32:22;;;;;;;0.10;0.10;;;;;;;1.79;74.18;100378.38;7365219;19;20017;-56
2022/12/11 06:34:47;;;;;;;0.00;0.00;;;;;;;1.84;74.32;100390.44;7363806;19;20003;-56
2022/12/11 06:37:13;;;;;;;0.10;0.10;;;;;;;1.74;74.49;100368.91;7366393;19;21020;-56
2022/12/11 06:39:38;;;;;;;0.10;0.10;;;;;;;1.75;74.37;100375.75;7363802;19;20006;-56
2022/12/11 06:42:04;;;;;;;0.10;0.10;;;;;;;1.72;74.27;100371.44;7365708;19;20017;-58
2022/12/11 06:44:29;;;;;;;0.10;0.10;;;;;;;1.83;74.20;100384.41;7364638;19;20488;-57
2022/12/11 06:46:54;;;;;;;0.10;0.10;;;;;;;1.71;74.56;100361.13;7364160;19;20014;-57
2022/12/11 06:49:20;;;;;;;0.10;0.10;;;;;;;1.87;74.45;100382.72;7364432;19;20007;-57
2022/12/11 06:51:46;;;;;;;0.08;0.08;;;;;;;1.78;74.56;100370.66;7361987;19;20037;-57
2022/12/11 06:54:11;;;;;;;0.10;0.10;;;;;;;1.93;74.25;100390.50;7362927;19;20006;-55
2022/12/11 06:56:37;;;;;;;0.00;0.00;;;;;;;1.88;74.29;100381.88;7364591;19;20010;-57
2022/12/11 06:59:02;;;;;;;0.00;0.00;;;;;;;1.85;74.45;100371.56;7353191;19;20018;-56
2022/12/11 07:01:28;;;;;;;0.10;0.10;;;;;;;1.81;74.52;100366.38;7363475;19;20736;-57
2022/12/11 07:03:58;;;;;;;0.10;0.10;;;;;;;1.94;74.05;100392.22;7361598;19;20006;-57
2022/12/11 07:06:26;;;;;;;0.10;0.10;;;;;;;1.81;74.04;100368.94;7358150;19;20018;-55
2022/12/11 07:08:52;;;;;;;0.10;0.10;;;;;;;1.78;74.08;100371.50;7361960;19;20064;-57
2022/12/11 07:11:18;;;;;;;0.05;0.05;;;;;;;1.91;74.04;100387.91;7363016;19;20021;-56
2022/12/11 07:13:44;;;;;;;0.10;0.10;;;;;;;1.90;74.20;100386.19;7361725;19;20858;-58
2022/12/11 07:16:12;;;;;;;0.03;0.03;;;;;;;1.91;73.98;100387.91;7362837;19;20006;-58
2022/12/11 07:18:38;;;;;;;;;;;;;;;1.95;73.82;100391.38;7361982;19;20027;-57
2022/12/11 07:21:05;;;;;;;0.10;0.10;;;;;;;1.89;73.93;100388.75;7362027;19;19950;-56
2022/12/11 07:23:32;;;;;;;0.00;0.00;;;;;;;1.86;73.74;100388.72;7360111;19;20040;-58
2022/12/11 07:25:57;;;;;;;0.10;0.10;;;;;;;1.78;74.25;100376.66;7363069;19;20010;-56
2022/12/11 07:28:23;;;;;;;0.10;0.10;;;;;;;1.90;74.16;100391.31;7357619;19;20006;-57
2022/12/11 07:30:48;;;;;;;0.10;0.10;;;;;;;1.94;74.27;100397.38;7363645;19;20006;-58
2022/12/11 07:33:14;;;;;;;0.10;0.10;;;;;;;2.00;74.40;100408.56;7361720;19;20015;-56
2022/12/11 07:35:40;;;;;;;0.10;0.10;;;;;;;2.03;74.04;100402.59;7360112;19;20070;-58
2022/12/11 07:38:05;;;;;;;0.10;0.10;;;;;;;1.98;74.05;100383.69;7360307;19;20010;-55
2022/12/11 07:40:32;;;;;;;0.10;0.10;;;;;;;2.09;74.23;100397.47;7361378;19;20014;-56
2022/12/11 07:42:58;;;;;;;0.10;0.10;;;;;;;2.08;74.38;100390.63;7363859;19;20011;-58
2022/12/11 07:45:25;;;;;;;0.03;0.03;;;;;;;2.14;73.99;100390.66;7361207;19;22514;-56
2022/12/11 07:47:51;;;;;;;0.08;0.08;;;;;;;2.01;74.05;100368.22;7364105;19;20013;-55
2022/12/11 07:50:16;;;;;;;0.10;0.10;;;;;;;2.17;74.35;100390.66;7359894;19;20033;-57
2022/12/11 07:52:42;;;;;;;0.10;0.10;;;;;;;2.14;73.95;100393.22;7363053;19;20110;-57
2022/12/11 07:55:08;;;;;;;0.00;0.00;;;;;;;2.12;74.00;100381.16;7364562;19;20022;-57
2022/12/11 07:57:33;;;;;;;0.00;0.00;;;;;;;2.16;73.80;100394.09;7361910;19;20014;-57
2022/12/11 07:59:58;;;;;;;0.10;0.10;;;;;;;2.10;73.80;100373.44;7361035;19;20787;-57
2022/12/11 08:02:24;;;;;;;0.00;0.00;;;;;;;2.12;74.20;100379.44;7361286;19;20082;-57
2022/12/11 08:04:49;;;;;;;0.10;0.10;;;;;;;2.16;74.13;100391.50;7362603;19;20025;-57
2022/12/11 08:07:15;;;;;;;0.10;0.10;;;;;;;2.10;73.96;100378.59;7356776;19;20044;-57
2022/12/11 08:09:40;;;;;;;0.00;0.00;;;;;;;1.76;73.76;100333.72;7360422;19;20036;-57
2022/12/11 08:12:05;;;;;;;0.10;0.10;;;;;;;2.12;73.96;100397.47;7359934;19;20429;-58
2022/12/11 08:14:31;;;;;;;0.10;0.10;;;;;;;2.06;73.89;100392.28;7360845;19;20003;-57
2022/12/11 08:16:58;;;;;;;0.10;0.10;;;;;;;2.06;73.61;100392.28;7361351;19;20017;-58
2022/12/11 08:19:24;;;;;;;0.10;0.10;;;;;;;1.98;73.94;100378.53;7361603;19;20544;-57
2022/12/11 08:21:49;;;;;;;0.10;0.10;;;;;;;1.68;73.66;100337.97;7356965;19;20021;-57
2022/12/11 08:24:19;;;;;;;0.00;0.00;;;;;;;1.97;74.06;100387.06;7356698;19;20467;-58
2022/12/11 08:26:44;;;;;;;0.10;0.10;;;;;;;2.02;73.92;100406.84;7355609;19;20473;-57
2022/12/11 08:29:10;;;;;;;0.00;0.00;;;;;;;2.09;73.57;100418.09;7361820;19;20022;-57
2022/12/11 08:31:35;;;;;;;0.00;0.00;;;;;;;2.09;73.85;100430.97;7354841;19;20014;-57
2022/12/11 08:34:00;;;;;;;0.00;0.00;;;;;;;1.97;74.01;100410.25;7361044;19;20080;-58
2022/12/11 08:36:26;;;;;;;0.10;0.10;;;;;;;1.98;74.03;100418.00;7360288;19;20021;-57
2022/12/11 08:38:54;;;;;;;0.10;0.10;;;;;;;2.04;73.90;100433.50;7340584;19;20010;-58
2022/12/11 08:41:28;;;;;;;0.10;0.10;;;;;;;2.05;74.09;100436.94;7351786;19;20151;-57
2022/12/11 08:43:54;;;;;;;0.10;0.10;;;;;;;2.02;74.09;100442.06;7348997;19;20015;-57
2022/12/11 08:46:22;;;;;;;0.10;0.10;;;;;;;2.01;74.37;100446.34;7349098;19;20090;-57
2022/12/11 08:48:48;;;;;;;0.10;0.10;;;;;;;1.84;74.24;100411.03;7347627;19;20016;-57
2022/12/11 08:51:16;;;;;;;0.10;0.10;;;;;;;2.01;74.09;100436.03;7359181;19;20018;-56
2022/12/11 08:53:42;;;;;;;0.10;0.10;;;;;;;2.01;74.07;100446.34;7367731;19;20039;-57
2022/12/11 08:56:11;;;;;;;0.00;0.00;;;;;;;2.03;73.93;100436.06;7357194;19;20114;-57
2022/12/11 08:58:37;;;;;;;0.10;0.10;;;;;;;2.02;74.21;100436.91;7360752;19;20006;-57
2022/12/11 09:01:18;;;;;;;0.10;0.10;;;;;;;2.04;74.01;100440.38;7361580;19;20046;-57
2022/12/11 09:03:43;;;;;;;0.10;0.10;;;;;;;1.94;73.85;100428.28;7345287;19;20013;-56
2022/12/11 09:06:11;;;;;;;0.10;0.10;;;;;;;2.00;73.81;100449.78;7338745;19;20019;-58
2022/12/11 09:08:37;;;;;;;0.10;0.10;;;;;;;1.99;73.77;100447.19;7352198;19;20011;-57
2022/12/11 09:11:08;;;;;;;0.10;0.10;;;;;;;1.93;73.59;100442.88;7364120;19;20663;-57
2022/12/11 09:13:34;;;;;;;0.08;0.08;;;;;;;1.95;73.83;100445.44;7362428;19;20358;-57
2022/12/11 09:16:03;;;;;;;0.05;0.05;;;;;;;1.83;73.84;100417.03;7359007;19;20015;-55
2022/12/11 09:18:28;;;;;;;0.00;0.00;;;;;;;1.89;73.70;100442.81;7357562;19;20867;-56
2022/12/11 09:21:02;;;;;;;0.00;0.00;;;;;;;1.76;73.76;100413.53;7360151;19;20019;-56
2022/12/11 09:23:28;;;;;;;0.10;0.10;;;;;;;1.91;74.04;100448.84;7363906;19;20473;-57
2022/12/11 09:25:53;;;;;;;0.03;0.03;;;;;;;1.77;74.19;100426.44;7364028;19;20014;-58
2022/12/11 09:28:19;;;;;;;0.10;0.10;;;;;;;1.80;73.73;100436.72;7361023;19;20685;-57
2022/12/11 09:30:44;;;;;;;0.03;0.03;;;;;;;1.85;73.71;100454.78;7363047;19;20006;-57
2022/12/11 09:33:10;;;;;;;0.10;0.10;;;;;;;1.71;73.72;100431.50;7363336;19;20018;-56
2022/12/11 09:35:36;;;;;;;0.08;0.08;;;;;;;1.76;73.79;100450.41;7354673;19;20014;-56
2022/12/11 09:38:01;;;;;;;0.00;0.00;;;;;;;1.74;73.54;100446.97;7356693;19;20027;-55
2022/12/11 09:40:27;;;;;;;0.10;0.10;;;;;;;1.18;73.97;100349.53;7337953;19;20077;-55
2022/12/11 09:43:05;;;;;;;0.10;0.10;;;;;;;1.78;73.70;100445.31;7353369;19;20010;-55
2022/12/11 09:45:30;;;;;;;0.10;0.10;;;;;;;1.53;74.05;100410.75;7354868;19;20012;-56
2022/12/11 09:47:56;;;;;;;0.10;0.10;;;;;;;1.22;74.13;100359.03;7358865;19;20031;-57
2022/12/11 09:50:25;;;;;;;0.10;0.10;;;;;;;1.74;74.26;100440.97;7352327;19;20043;-56
2022/12/11 09:53:26;;;;;;;0.05;0.05;;;;;;;1.76;73.70;100440.13;7353997;19;20477;-55
2022/12/11 09:55:57;;;;;;;0.10;0.10;;;;;;;1.77;73.95;100440.97;7248613;19;2003894;-57
2022/12/11 09:58:41;;;;;;;0.10;0.10;;;;;;;1.77;73.82;100438.41;7356714;19;20116;-55
2022/12/11 10:01:18;;;;;;;0.10;0.10;;;;;;;1.68;74.19;100423.75;7352739;19;20579;-56
2022/12/11 10:04:05;;;;;;;0.10;0.10;;;;;;;1.88;73.99;100448.81;7352140;19;20018;-58
2022/12/11 10:06:47;;;;;;;0.10;0.10;;;;;;;1.90;74.06;100447.97;7356458;19;20019;-55
2022/12/11 10:09:24;;;;;;;0.10;0.10;;;;;;;1.93;74.02;100452.31;7355503;19;20010;-57
2022/12/11 10:12:01;;;;;;;0.00;0.00;;;;;;;1.99;74.01;100457.50;7356351;19;20007;-55
2022/12/11 10:14:38;;;;;;;0.10;0.10;;;;;;;2.02;73.99;100465.22;7356747;19;20021;-57
2022/12/11 10:17:31;;;;;;;0.00;0.00;;;;;;;2.10;74.30;100468.75;7359718;19;20007;-57
2022/12/11 10:20:04;;;;;;;0.10;0.10;;;;;;;2.23;74.26;100461.94;7255308;19;2004637;-57
2022/12/11 10:22:31;;;;;;;0.10;0.10;;;;;;;2.46;74.46;100464.69;7359565;19;20093;-57
2022/12/11 10:25:06;;;;;;;0.00;0.00;;;;;;;2.60;74.38;100450.19;7363519;19;20013;-58
2022/12/11 10:27:37;;;;;;;0.08;0.08;;;;;;;2.94;74.01;100468.38;7360714;19;20627;-57
2022/12/11 10:30:24;;;;;;;0.00;0.00;;;;;;;3.14;74.01;100474.50;7356915;19;20010;-56
2022/12/11 10:32:49;;;;;;;0.10;0.10;;;;;;;3.21;73.38;100468.53;7356069;19;20027;-57
2022/12/11 10:35:26;;;;;;;0.10;0.10;;;;;;;3.17;73.27;100440.13;7355192;19;20066;-57
2022/12/11 10:37:58;;;;;;;0.10;0.10;;;;;;;3.25;73.25;100449.63;7362656;19;20933;-58
2022/12/11 10:40:27;;;;;;;0.10;0.10;;;;;;;3.34;73.36;100453.91;7354240;19;20514;-55
2022/12/11 10:42:54;;;;;;;0.10;0.10;;;;;;;3.42;73.24;100453.97;7361972;19;20031;-58
2022/12/11 10:45:19;;;;;;;0.00;0.00;;;;;;;3.52;73.34;100453.13;7357636;19;20353;-58
2022/12/11 10:47:44;;;;;;;0.10;0.10;;;;;;;3.71;73.44;100449.72;7361110;19;20095;-57
2022/12/11 10:50:25;;;;;;;0.00;0.00;;;;;;;4.04;73.58;100453.16;7361031;19;20081;-56
2022/12/11 10:52:52;;;;;;;0.00;0.00;;;;;;;4.10;72.90;100424.72;7352175;19;20389;-56
2022/12/11 10:55:27;;;;;;;0.05;0.05;;;;;;;4.53;72.44;100450.53;7360013;19;20022;-58
2022/12/11 10:58:02;;;;;;;0.00;0.00;;;;;;;4.74;72.47;100447.88;7360054;19;20027;-56
2022/12/11 11:00:41;;;;;;;0.00;0.00;;;;;;;4.90;72.23;100453.88;7359386;19;20014;-57
2022/12/11 11:03:24;;;;;;;0.00;0.00;;;;;;;4.95;71.82;100442.63;7360151;19;20007;-58
2022/12/11 11:06:01;;;;;;;0.00;0.00;;;;;;;5.09;71.61;100445.16;7360636;19;20006;-57
2022/12/11 11:08:36;;;;;;;0.10;0.10;;;;;;;5.10;71.82;100440.84;7361060;19;20051;-56
2022/12/11 11:11:01;;;;;;;0.10;0.10;;;;;;;5.16;71.58;100440.81;7360054;19;20014;-57
2022/12/11 11:13:31;;;;;;;0.10;0.10;;;;;;;5.32;71.58;100421.78;7357920;19;20035;-58
2022/12/11 11:16:00;;;;;;;0.00;0.00;;;;;;;5.61;71.49;100433.66;7364277;19;20015;-56
2022/12/11 11:18:27;;;;;;;0.10;0.10;;;;;;;5.84;71.32;100428.31;7354687;19;20006;-57
2022/12/11 11:20:53;;;;;;;0.00;0.00;;;;;;;6.14;71.73;100425.50;7355664;19;20014;-58
2022/12/11 11:23:23;;;;;;;0.00;0.00;;;;;;;6.35;70.72;100414.06;7353576;19;20031;-57
2022/12/11 11:25:52;;;;;;;0.00;0.00;;;;;;;6.82;70.47;100437.78;7354279;19;20014;-58
2022/12/11 11:28:23;;;;;;;0.10;0.10;;;;;;;7.16;70.15;100420.06;7357706;19;20018;-56
2022/12/11 11:31:02;;;;;;;0.00;0.00;;;;;;;7.55;70.28;100423.81;7358154;19;20029;-58
2022/12/11 11:33:28;;;;;;;0.00;0.00;;;;;;;7.78;68.67;100426.94;7354647;19;20026;-57
2022/12/11 11:36:03;;;;;;;0.10;0.10;;;;;;;8.06;68.22;100419.56;7356552;19;20909;-58
2022/12/11 11:38:39;;;;;;;0.08;0.08;;;;;;;8.42;68.23;100414.63;7361182;19;20014;-58
2022/12/11 11:41:14;;;;;;;0.00;0.00;;;;;;;8.77;67.93;100426.09;7353376;19;20007;-56
2022/12/11 11:43:46;;;;;;;0.00;0.00;;;;;;;9.06;67.47;100420.28;7357520;19;20054;-57
2022/12/11 11:46:32;;;;;;;0.00;0.00;;;;;;;9.32;66.68;100415.38;7361300;19;20007;-58
2022/12/11 11:49:09;;;;;;;0.00;0.00;;;;;;;9.64;66.59;100410.34;7357489;19;20036;-56
2022/12/11 11:51:46;;;;;;;0.00;0.00;;;;;;;9.90;66.61;100418.38;7359945;19;20006;-59